Impacts METAR Board
IDs:

KMNZ - Hamilton Muni, TX, US

Updated at: 1200 UTC 16 Jul 2019
Potential Impact None Slight Moderate High
Time 16/00Z 16/01Z 16/02Z 16/03Z 16/04Z 16/05Z 16/06Z 16/07Z 16/08Z 16/09Z 16/10Z 16/11Z 16/12Z
Temp94 92 89 83 80 79 77 78 77 78 78 77 76
Dewpt68 69 70 71 71 71 71 71 72 73 73 76 76
Altim29.90 29.90 29.92 29.93 29.95 29.95 29.95 29.95 29.95 29.95 29.95 29.97 29.99
VIS10 7 10 10 7 10 10 10 10 10 10 10 10
CIG-- -- 70 -- -- -- -- -- -- -- -- -- --
CoverSCTSCTOVCCLRCLRCLRCLRCLRCLRCLRCLRCLRCLR
FltCatVFRVFRVFRVFRVFRVFRVFRVFRVFRVFRVFRVFRVFR
WX--------------------------
WDir00170180180160180180190200190180200
WSpd0 0 6 5 5 5 5 6 6 9 10 10 9
WGst-- -- -- -- -- -- -- -- -- -- -- -- --
Raw hourly METARs
KMNZ 152355Z AUTO 00000KT 10SM SCT060 35/20 A2990 RMK AO2 T03450198 10351 20320
KMNZ 160055Z AUTO 00000KT 7SM SCT060 34/21 A2990 RMK AO2 T03350208
KMNZ 160155Z AUTO 17006KT 10SM OVC070 31/21 A2992 RMK AO2 T03140213
KMNZ 160255Z AUTO 18005KT 10SM CLR 29/22 A2993 RMK AO2 T02860215
KMNZ 160355Z AUTO 18005KT 7SM CLR 27/22 A2995 RMK AO2 T02680217
KMNZ 160455Z AUTO 16005KT 10SM CLR 26/22 A2995 RMK AO2 T02620218
KMNZ 160555Z AUTO 18005KT 10SM CLR 25/22 A2995 RMK AO2 T02520215 10344 20252 403510219
KMNZ 160655Z AUTO 18006KT 10SM CLR 25/22 A2995 RMK AO2 T02530217
KMNZ 160755Z AUTO 19006KT 10SM CLR 25/22 A2995 RMK AO2 T02500223
KMNZ 160855Z AUTO 20009KT 10SM CLR 26/23 A2995 RMK AO2 T02570229
KMNZ 160955Z AUTO 19010KT 10SM CLR 26/23 A2995 RMK AO2 T02550230
KMNZ 161055Z AUTO 18010KT 10SM CLR 25/24 A2997 RMK AO2 T02490242
KMNZ 161155Z AUTO 20009KT 10SM CLR 25/25 A2999 RMK AO2 T02450245 10258 20245